Appleyard, Washington
Current Conditions -  °F | °C
As of 4:55 AM on Friday 28 Nov 2014 (Local Time) from KEAT Reporting Station
Few Clouds Few Clouds  
Wind Chill:   Ceiling: Unl
Heat Index:   Visibility: NA
Dew Point:   Wind: 5mph
Humidity: 71%   Direction: NA
Pressure: 29.51"   Gusts: NA
Location:  47.3635°N, 120.348°W
Report Text: KEAT 281255Z AUTO VRB04KT FEW060 08/03 A2951 RMK AO2 SLP995 T00780028
Loading
Personal Weather Stations






























Interactive Weather Map New forecast layout! Learn more

10-Day Weather Forecast

Advertisements
Track Severe Weather on mobile